Time;durP1;ratioP1;P1;durP2;ratioP2;P2;SDS_P1;SDS_P2;PMS_P1;PMS_P2;Temp;Humidity;BMP_temperature;BMP_pressure;BME280_temperature;BME280_humidity;BME280_pressure;Samples;Min_cycle;Max_cycle;Signal;HPM_P1;HPM_P2
2022/03/29 00:01:38;;;;;;;;;;;13.90;58.80;;;;;;5080189;28;19999;-75
2022/03/29 00:04:03;;;;;;;;;;;13.90;58.50;;;;;;5080414;28;20379;-75
2022/03/29 00:06:29;;;;;;;;;;;13.90;58.60;;;;;;5080387;28;19916;-76
2022/03/29 00:08:56;;;;;;;;;;;13.90;58.80;;;;;;5080141;28;19915;-76
2022/03/29 00:11:21;;;;;;;;;;;13.90;58.80;;;;;;5062345;28;19908;-76
2022/03/29 00:13:47;;;;;;;;;;;13.80;58.80;;;;;;5080168;28;19908;-75
2022/03/29 00:16:13;;;;;;;;;;;13.90;58.80;;;;;;5079910;28;19959;-76
2022/03/29 00:18:38;;;;;;;;;;;13.80;58.70;;;;;;5080106;28;19954;-75
2022/03/29 00:21:04;;;;;;;;;;;13.80;58.90;;;;;;5080126;28;19909;-76
2022/03/29 00:23:30;;;;;;;;;;;13.80;58.90;;;;;;5080000;28;19909;-75
2022/03/29 00:25:55;;;;;;;;;;;13.80;59.00;;;;;;5079939;28;19909;-75
2022/03/29 00:28:21;;;;;;;;;;;13.80;58.90;;;;;;5079334;28;19920;-76
2022/03/29 00:30:46;;;;;;;;;;;13.80;59.00;;;;;;5079839;28;19915;-76
2022/03/29 00:33:12;;;;;;;;;;;13.80;59.00;;;;;;5061546;28;20418;-76
2022/03/29 00:35:38;;;;;;;;;;;13.80;59.40;;;;;;5079799;28;19919;-76
2022/03/29 00:38:04;;;;;;;;;;;13.70;59.10;;;;;;5079760;28;19956;-75
2022/03/29 00:40:30;;;;;;;;;;;13.80;59.20;;;;;;5079443;28;19916;-76
2022/03/29 00:42:56;;;;;;;;;;;13.70;59.10;;;;;;5079635;28;19908;-75
2022/03/29 00:45:23;;;;;;;;;;;13.70;59.50;;;;;;5079467;28;19958;-75
2022/03/29 00:47:49;;;;;;;;;;;13.70;60.00;;;;;;5079333;28;19972;-75
2022/03/29 00:50:14;;;;;;;;;;;13.60;59.60;;;;;;5079679;28;19915;-75
2022/03/29 00:52:40;;;;;;;;;;;13.70;59.70;;;;;;5061512;28;20287;-75
2022/03/29 00:55:06;;;;;;;;;;;13.60;59.50;;;;;;5079413;28;19975;-75
2022/03/29 00:57:34;;;;;;;;;;;13.60;60.60;;;;;;5079347;28;19958;-75
2022/03/29 01:00:01;;;;;;;;;;;13.60;59.80;;;;;;5079142;28;19908;-75
2022/03/29 01:02:26;;;;;;;;;;;13.60;59.40;;;;;;5061135;28;19916;-75
2022/03/29 01:04:52;;;;;;;;;;;13.50;59.90;;;;;;5079329;28;19908;-75
2022/03/29 01:07:18;;;;;;;;;;;13.50;60.10;;;;;;5079063;28;19908;-76
2022/03/29 01:09:43;;;;;;;;;;;13.50;60.50;;;;;;5061065;28;19946;-75
2022/03/29 01:12:09;;;;;;;;;;;13.50;60.40;;;;;;5078871;28;19962;-76
2022/03/29 01:14:35;;;;;;;;;;;13.50;60.20;;;;;;5078844;28;19936;-76
2022/03/29 01:19:45;;;;;;;;;;;13.50;60.70;;;;;;5078893;28;19932;-75
2022/03/29 01:22:11;;;;;;;;;;;13.40;60.50;;;;;;5078891;28;19908;-75
2022/03/29 01:24:40;;;;;;;;;;;13.40;60.80;;;;;;5078835;28;19958;-75
2022/03/29 01:27:07;;;;;;;;;;;13.40;61.50;;;;;;5078407;28;19915;-75
2022/03/29 01:29:33;;;;;;;;;;;13.30;62.40;;;;;;5078670;28;19912;-75
2022/03/29 01:32:01;;;;;;;;;;;13.30;62.70;;;;;;5078509;28;20306;-75
2022/03/29 01:34:28;;;;;;;;;;;13.20;62.60;;;;;;5078389;28;19996;-75
2022/03/29 01:36:54;;;;;;;;;;;13.20;62.10;;;;;;5078571;28;19917;-75
2022/03/29 01:39:20;;;;;;;;;;;13.20;61.90;;;;;;5078469;28;19999;-75
2022/03/29 01:41:47;;;;;;;;;;;13.20;61.00;;;;;;5078051;28;19915;-75
2022/03/29 01:44:12;;;;;;;;;;;13.20;62.30;;;;;;5078309;28;19908;-75
2022/03/29 01:46:38;;;;;;;;;;;13.20;62.10;;;;;;5077899;28;19970;-75
2022/03/29 01:49:04;;;;;;;;;;;13.20;61.80;;;;;;5078340;28;19909;-75
2022/03/29 01:51:30;;;;;;;;;;;13.20;61.10;;;;;;5078142;28;20584;-75
2022/03/29 01:53:57;;;;;;;;;;;13.20;60.90;;;;;;5078128;28;20303;-75
2022/03/29 01:56:26;;;;;;;;;;;13.20;61.10;;;;;;5065176;28;19912;-75
2022/03/29 01:58:51;;;;;;;;;;;13.20;61.00;;;;;;5078156;28;19916;-75
2022/03/29 02:01:17;;;;;;;;;;;13.10;60.90;;;;;;5078053;28;19909;-75
2022/03/29 02:03:42;;;;;;;;;;;13.10;60.90;;;;;;5078102;28;20033;-75
2022/03/29 02:06:08;;;;;;;;;;;13.10;61.00;;;;;;5078277;28;20011;-75
2022/03/29 02:08:34;;;;;;;;;;;13.10;60.90;;;;;;5077946;28;20298;-75
2022/03/29 02:11:00;;;;;;;;;;;13.10;60.70;;;;;;5078117;28;19916;-75
2022/03/29 02:13:25;;;;;;;;;;;13.10;60.60;;;;;;5077997;28;19916;-75
2022/03/29 02:15:51;;;;;;;;;;;13.00;60.80;;;;;;5059732;28;19913;-75
2022/03/29 02:18:17;;;;;;;;;;;13.00;61.00;;;;;;5077867;28;19909;-75
2022/03/29 02:20:42;;;;;;;;;;;13.00;61.30;;;;;;5078039;28;19915;-75
2022/03/29 02:23:09;;;;;;;;;;;13.00;61.60;;;;;;5077933;28;19915;-75
2022/03/29 02:25:35;;;;;;;;;;;13.00;61.90;;;;;;5077853;28;20276;-75
2022/03/29 02:28:02;;;;;;;;;;;12.90;61.60;;;;;;5077548;28;19915;-75
2022/03/29 02:30:27;;;;;;;;;;;12.90;60.90;;;;;;5077328;28;20354;-75
2022/03/29 02:32:53;;;;;;;;;;;12.90;60.90;;;;;;5077852;28;19967;-75
2022/03/29 02:35:19;;;;;;;;;;;12.90;60.40;;;;;;5077507;28;19912;-75
2022/03/29 02:37:44;;;;;;;;;;;12.80;60.30;;;;;;5059746;28;19982;-75
2022/03/29 02:40:11;;;;;;;;;;;12.80;60.90;;;;;;5059300;28;19916;-75
2022/03/29 02:42:44;;;;;;;;;;;12.80;61.40;;;;;;5077752;28;19923;-75
2022/03/29 02:45:16;;;;;;;;;;;12.70;61.50;;;;;;5064840;28;19908;-75
2022/03/29 02:47:45;;;;;;;;;;;12.70;61.50;;;;;;5077542;28;19927;-75
2022/03/29 02:50:12;;;;;;;;;;;12.60;61.70;;;;;;5077746;28;20283;-75
2022/03/29 02:52:48;;;;;;;;;;;12.60;61.90;;;;;;5077491;28;19909;-75
2022/03/29 02:55:14;;;;;;;;;;;12.60;61.90;;;;;;5081555;28;19968;-75
2022/03/29 02:57:40;;;;;;;;;;;12.50;62.00;;;;;;5081624;28;20032;-75
2022/03/29 03:00:07;;;;;;;;;;;12.50;62.20;;;;;;5081355;28;19915;-75
2022/03/29 03:02:33;;;;;;;;;;;12.50;62.00;;;;;;5081463;28;19908;-75
2022/03/29 03:04:59;;;;;;;;;;;12.50;62.10;;;;;;5081576;28;19970;-75
2022/03/29 03:07:25;;;;;;;;;;;12.40;62.00;;;;;;5081368;28;19974;-75
2022/03/29 03:09:50;;;;;;;;;;;12.40;62.10;;;;;;5081500;28;19908;-75
2022/03/29 03:12:16;;;;;;;;;;;12.40;62.30;;;;;;5081192;28;19908;-75
2022/03/29 03:14:43;;;;;;;;;;;12.40;62.20;;;;;;5081136;28;19995;-75
2022/03/29 03:17:08;;;;;;;;;;;12.40;61.90;;;;;;5081313;28;19915;-75
2022/03/29 03:19:34;;;;;;;;;;;12.30;62.40;;;;;;5081489;28;19909;-75
2022/03/29 03:22:00;;;;;;;;;;;12.30;62.20;;;;;;5081101;28;19908;-75
2022/03/29 03:24:25;;;;;;;;;;;12.20;62.30;;;;;;5080984;28;19997;-75
2022/03/29 03:26:51;;;;;;;;;;;12.20;63.00;;;;;;5062523;28;19908;-75
2022/03/29 03:29:16;;;;;;;;;;;12.20;63.10;;;;;;5080862;28;19978;-75
2022/03/29 03:31:42;;;;;;;;;;;12.20;63.10;;;;;;5080835;28;20375;-75
2022/03/29 03:34:08;;;;;;;;;;;12.10;62.90;;;;;;5080875;28;19909;-75
2022/03/29 03:36:33;;;;;;;;;;;12.10;62.70;;;;;;5080714;28;19912;-75
2022/03/29 03:38:59;;;;;;;;;;;12.00;62.60;;;;;;5080958;28;20390;-75
2022/03/29 03:41:24;;;;;;;;;;;11.90;62.30;;;;;;5076773;28;20283;-75
2022/03/29 03:43:50;;;;;;;;;;;11.90;62.50;;;;;;5080778;28;19909;-75
2022/03/29 03:46:16;;;;;;;;;;;11.90;62.20;;;;;;5080083;28;19913;-75
2022/03/29 03:48:41;;;;;;;;;;;11.80;62.90;;;;;;5079792;28;19916;-75
2022/03/29 03:51:07;;;;;;;;;;;11.70;63.30;;;;;;5079421;28;19908;-74
2022/03/29 03:53:33;;;;;;;;;;;11.70;63.30;;;;;;5079450;28;20393;-75
2022/03/29 03:55:59;;;;;;;;;;;11.70;63.50;;;;;;5079173;28;20361;-75
2022/03/29 03:58:24;;;;;;;;;;;11.70;63.60;;;;;;5079422;28;19948;-75
2022/03/29 04:00:50;;;;;;;;;;;11.70;64.40;;;;;;5078952;28;19908;-75
2022/03/29 04:03:16;;;;;;;;;;;11.60;63.50;;;;;;5079350;28;19908;-75
2022/03/29 04:05:42;;;;;;;;;;;11.60;63.00;;;;;;5078804;28;19916;-75
2022/03/29 04:08:07;;;;;;;;;;;11.50;63.00;;;;;;5079428;28;19915;-74
2022/03/29 04:10:33;;;;;;;;;;;11.50;63.60;;;;;;5078943;28;19909;-75
2022/03/29 04:13:00;;;;;;;;;;;11.40;63.60;;;;;;5079418;28;19951;-75
2022/03/29 04:15:26;;;;;;;;;;;11.40;63.50;;;;;;5078670;28;19962;-75
2022/03/29 04:17:52;;;;;;;;;;;11.30;63.60;;;;;;5079294;28;19909;-75
2022/03/29 04:20:17;;;;;;;;;;;11.30;63.20;;;;;;5078909;28;19940;-75
2022/03/29 04:22:44;;;;;;;;;;;11.20;63.40;;;;;;5079055;28;19912;-74
2022/03/29 04:25:10;;;;;;;;;;;11.20;63.30;;;;;;5078711;28;19915;-75
2022/03/29 04:27:35;;;;;;;;;;;11.10;64.90;;;;;;5060510;28;19915;-75
2022/03/29 04:30:01;;;;;;;;;;;11.10;64.20;;;;;;5078448;28;19909;-74
2022/03/29 04:32:27;;;;;;;;;;;11.00;64.20;;;;;;5078688;28;19908;-75
2022/03/29 04:34:52;;;;;;;;;;;11.00;64.50;;;;;;5078524;28;19962;-75
2022/03/29 04:37:18;;;;;;;;;;;11.00;64.10;;;;;;5078714;28;19909;-75
2022/03/29 04:39:44;;;;;;;;;;;10.90;63.90;;;;;;5078330;28;19913;-75
2022/03/29 04:42:09;;;;;;;;;;;10.90;64.20;;;;;;5078756;28;20314;-75
2022/03/29 04:44:35;;;;;;;;;;;10.90;64.10;;;;;;5078305;28;19909;-74
2022/03/29 04:47:01;;;;;;;;;;;10.80;63.80;;;;;;5008119;28;2002987;-75
2022/03/29 04:49:27;;;;;;;;;;;10.80;63.80;;;;;;5079569;28;19986;-75
2022/03/29 04:51:52;;;;;;;;;;;10.70;63.70;;;;;;5079674;28;20287;-74
2022/03/29 04:54:18;;;;;;;;;;;10.60;64.30;;;;;;5079119;28;20387;-75
2022/03/29 04:56:44;;;;;;;;;;;10.60;64.70;;;;;;5079559;28;20006;-75
2022/03/29 04:59:09;;;;;;;;;;;10.50;64.40;;;;;;5061149;28;20000;-75
2022/03/29 05:01:36;;;;;;;;;;;10.50;65.10;;;;;;5079268;28;20290;-77
2022/03/29 05:04:03;;;;;;;;;;;10.40;65.00;;;;;;5061504;28;20010;-72
2022/03/29 05:06:28;;;;;;;;;;;10.40;65.10;;;;;;5079291;28;19958;-73
2022/03/29 05:08:54;;;;;;;;;;;10.30;65.30;;;;;;5078936;28;19912;-72
2022/03/29 05:11:20;;;;;;;;;;;10.30;65.30;;;;;;5079285;28;19916;-72
2022/03/29 05:13:45;;;;;;;;;;;10.20;64.80;;;;;;5079043;28;19909;-72
2022/03/29 05:16:11;;;;;;;;;;;10.20;65.10;;;;;;5078025;28;20031;-72
2022/03/29 05:18:36;;;;;;;;;;;10.10;65.40;;;;;;5060842;28;20011;-73
2022/03/29 05:21:02;;;;;;;;;;;10.10;65.60;;;;;;5079060;28;19962;-73
2022/03/29 05:23:28;;;;;;;;;;;10.10;64.90;;;;;;5078725;28;19959;-73
2022/03/29 05:25:53;;;;;;;;;;;10.00;64.90;;;;;;5060976;28;19912;-73
2022/03/29 05:28:19;;;;;;;;;;;10.00;65.10;;;;;;5060352;28;19955;-73
2022/03/29 05:30:45;;;;;;;;;;;10.00;65.10;;;;;;5078633;28;19951;-74
2022/03/29 05:33:15;;;;;;;;;;;9.90;65.40;;;;;;5078460;28;20459;-74
2022/03/29 05:35:41;;;;;;;;;;;9.90;65.10;;;;;;5078561;28;19912;-75
2022/03/29 05:38:07;;;;;;;;;;;9.90;65.10;;;;;;5060447;28;19908;-82
2022/03/29 05:40:34;;;;;;;;;;;9.80;65.10;;;;;;5060472;28;19909;-75
2022/03/29 05:42:59;;;;;;;;;;;9.80;65.90;;;;;;5078315;28;20371;-76
2022/03/29 05:45:25;;;;;;;;;;;9.80;66.00;;;;;;5060474;28;19952;-73
2022/03/29 05:50:35;;;;;;;;;;;9.70;65.30;;;;;;5078325;28;19999;-75
2022/03/29 05:53:02;;;;;;;;;;;9.70;65.20;;;;;;5078411;28;20387;-76
2022/03/29 05:55:27;;;;;;;;;;;9.70;65.50;;;;;;5078114;28;19912;-75
2022/03/29 05:57:53;;;;;;;;;;;9.60;65.70;;;;;;5077624;28;19912;-75
2022/03/29 06:00:23;;;;;;;;;;;9.60;66.00;;;;;;5077702;28;19913;-76
2022/03/29 06:02:49;;;;;;;;;;;9.60;65.90;;;;;;5064033;28;19909;-75
2022/03/29 06:05:14;;;;;;;;;;;9.60;66.10;;;;;;5077178;28;20386;-76
2022/03/29 06:07:40;;;;;;;;;;;9.50;66.20;;;;;;5078280;28;19908;-75
2022/03/29 06:10:06;;;;;;;;;;;9.50;66.40;;;;;;5078088;28;19912;-75
2022/03/29 06:12:33;;;;;;;;;;;9.50;66.20;;;;;;5078086;28;20280;-76
2022/03/29 06:15:01;;;;;;;;;;;9.50;66.40;;;;;;5077719;28;20012;-75
2022/03/29 06:17:27;;;;;;;;;;;9.40;66.40;;;;;;5078101;28;20004;-76
2022/03/29 06:19:54;;;;;;;;;;;9.50;66.70;;;;;;5078014;28;19947;-76
2022/03/29 06:22:20;;;;;;;;;;;9.50;66.70;;;;;;5077946;28;19916;-76
2022/03/29 06:24:46;;;;;;;;;;;9.50;66.70;;;;;;5077841;28;19905;-76
2022/03/29 06:27:11;;;;;;;;;;;9.50;66.20;;;;;;5077475;28;19934;-76
2022/03/29 06:29:37;;;;;;;;;;;9.50;65.60;;;;;;5077803;28;19912;-76
2022/03/29 06:32:03;;;;;;;;;;;9.50;65.10;;;;;;5077675;28;19958;-76
2022/03/29 06:34:29;;;;;;;;;;;9.50;66.40;;;;;;5077664;28;20021;-76
2022/03/29 06:36:55;;;;;;;;;;;9.60;66.60;;;;;;5077451;28;19908;-76
2022/03/29 06:39:21;;;;;;;;;;;9.70;68.70;;;;;;5077363;28;20021;-76
2022/03/29 06:41:47;;;;;;;;;;;9.80;71.00;;;;;;5077599;28;19998;-76
2022/03/29 06:44:13;;;;;;;;;;;10.00;72.80;;;;;;5077663;28;19957;-76
2022/03/29 06:46:39;;;;;;;;;;;10.10;71.10;;;;;;5077529;28;19974;-76
2022/03/29 06:49:06;;;;;;;;;;;10.10;71.10;;;;;;5077920;28;19913;-76
2022/03/29 06:51:35;;;;;;;;;;;10.30;73.20;;;;;;5077675;28;19909;-76
2022/03/29 06:54:01;;;;;;;;;;;10.30;70.60;;;;;;5077453;28;19908;-76
2022/03/29 06:56:28;;;;;;;;;;;10.40;69.00;;;;;;5077509;28;19912;-76
2022/03/29 06:58:54;;;;;;;;;;;10.50;68.60;;;;;;5077457;28;19920;-76
2022/03/29 07:01:21;;;;;;;;;;;10.60;69.20;;;;;;5077662;28;20291;-76
2022/03/29 07:03:47;;;;;;;;;;;10.70;71.70;;;;;;5077380;28;20363;-76
2022/03/29 07:06:13;;;;;;;;;;;10.80;73.10;;;;;;5077892;28;19974;-76
2022/03/29 07:11:16;;;;;;;;;;;10.80;73.10;;;;;;5077527;28;19909;-76
2022/03/29 07:11:24;;;;;;;;;;;10.90;71.80;;;;;;5077306;28;19916;-76
2022/03/29 07:13:50;;;;;;;;;;;11.00;70.90;;;;;;5077277;28;19998;-76
2022/03/29 07:16:16;;;;;;;;;;;11.10;73.20;;;;;;5077176;28;19918;-76
2022/03/29 07:18:42;;;;;;;;;;;11.10;71.20;;;;;;5077294;28;20015;-76
2022/03/29 07:21:10;;;;;;;;;;;11.20;70.70;;;;;;5077615;28;19909;-76
2022/03/29 07:23:36;;;;;;;;;;;11.30;69.70;;;;;;5059184;28;19908;-76
2022/03/29 07:26:02;;;;;;;;;;;11.30;70.40;;;;;;5077375;28;19909;-76
2022/03/29 07:28:27;;;;;;;;;;;11.40;70.80;;;;;;5076764;28;20268;-76
2022/03/29 07:30:53;;;;;;;;;;;11.50;71.90;;;;;;5077064;28;19912;-76
2022/03/29 07:33:19;;;;;;;;;;;11.50;70.80;;;;;;5077151;28;20424;-76
2022/03/29 07:35:45;;;;;;;;;;;11.60;71.50;;;;;;5077349;28;19920;-76
2022/03/29 07:38:11;;;;;;;;;;;11.60;70.80;;;;;;5077160;28;20284;-76
2022/03/29 07:40:37;;;;;;;;;;;11.70;72.60;;;;;;5079876;28;19908;-76
2022/03/29 07:43:04;;;;;;;;;;;11.70;70.60;;;;;;5080586;28;20430;-76
2022/03/29 07:45:30;;;;;;;;;;;11.80;69.80;;;;;;5080303;28;19909;-76
2022/03/29 07:47:56;;;;;;;;;;;11.80;70.00;;;;;;5080228;28;19927;-76
2022/03/29 07:50:26;;;;;;;;;;;11.90;69.90;;;;;;5080612;28;20336;-76
2022/03/29 07:52:52;;;;;;;;;;;11.90;72.00;;;;;;5080502;28;19908;-76
2022/03/29 07:55:17;;;;;;;;;;;11.90;71.00;;;;;;5080636;28;19962;-76
2022/03/29 07:57:44;;;;;;;;;;;12.00;70.50;;;;;;5080503;28;20399;-76
2022/03/29 08:02:55;;;;;;;;;;;12.00;71.20;;;;;;5067991;28;19915;-76
2022/03/29 08:05:21;;;;;;;;;;;12.00;71.30;;;;;;5080421;28;19931;-76
2022/03/29 08:07:47;;;;;;;;;;;12.00;71.10;;;;;;5080559;28;19908;-76
2022/03/29 08:10:13;;;;;;;;;;;12.00;70.80;;;;;;5080237;28;19908;-76
2022/03/29 08:12:39;;;;;;;;;;;12.10;70.50;;;;;;5080318;28;19997;-76
2022/03/29 08:15:06;;;;;;;;;;;12.10;70.10;;;;;;5061864;28;19912;-76
2022/03/29 08:17:33;;;;;;;;;;;12.10;70.20;;;;;;5080508;28;20279;-76
2022/03/29 08:19:58;;;;;;;;;;;12.10;70.60;;;;;;5080168;28;19946;-76
2022/03/29 08:22:24;;;;;;;;;;;12.20;70.90;;;;;;5080234;28;19952;-76
2022/03/29 08:24:50;;;;;;;;;;;12.20;70.70;;;;;;5080115;28;19972;-76
2022/03/29 08:27:15;;;;;;;;;;;12.20;71.00;;;;;;5079579;28;19908;-76
2022/03/29 08:29:41;;;;;;;;;;;12.30;72.10;;;;;;5079951;28;19914;-76
2022/03/29 08:32:07;;;;;;;;;;;12.30;71.80;;;;;;5079918;28;19987;-76
2022/03/29 08:34:33;;;;;;;;;;;12.30;71.10;;;;;;5061633;28;19923;-76
2022/03/29 08:36:58;;;;;;;;;;;12.30;70.50;;;;;;5079663;28;19912;-76
2022/03/29 08:39:24;;;;;;;;;;;12.30;72.00;;;;;;5079632;28;19913;-76
2022/03/29 08:41:56;;;;;;;;;;;12.40;71.40;;;;;;5079649;28;19987;-76
2022/03/29 08:44:23;;;;;;;;;;;12.40;71.40;;;;;;5061287;28;19915;-76
2022/03/29 08:46:49;;;;;;;;;;;12.40;72.10;;;;;;5079906;28;19927;-76
2022/03/29 08:49:17;;;;;;;;;;;12.40;71.60;;;;;;5079530;28;19908;-76
2022/03/29 08:51:43;;;;;;;;;;;12.50;71.10;;;;;;5078540;28;20424;-76
2022/03/29 08:54:09;;;;;;;;;;;12.60;72.70;;;;;;5079254;28;19908;-76
2022/03/29 08:56:35;;;;;;;;;;;12.60;73.20;;;;;;5061460;28;19920;-76
2022/03/29 08:59:01;;;;;;;;;;;12.70;73.50;;;;;;5079179;28;20363;-76
2022/03/29 09:01:27;;;;;;;;;;;12.70;73.60;;;;;;5061298;28;19958;-76
2022/03/29 09:04:12;;;;;;;;;;;12.80;72.80;;;;;;5079402;28;19916;-76
2022/03/29 09:07:04;;;;;;;;;;;12.80;72.60;;;;;;5079282;28;19909;-76
2022/03/29 09:09:34;;;;;;;;;;;12.90;73.40;;;;;;5063635;28;19915;-76
2022/03/29 09:12:09;;;;;;;;;;;12.90;73.80;;;;;;5079257;28;19932;-76
2022/03/29 09:14:49;;;;;;;;;;;13.00;73.10;;;;;;5078876;28;19908;-76
2022/03/29 09:17:34;;;;;;;;;;;13.00;72.20;;;;;;5078994;28;19919;-76
2022/03/29 09:20:02;;;;;;;;;;;13.10;73.50;;;;;;5078943;28;19916;-76
2022/03/29 09:22:44;;;;;;;;;;;13.10;72.40;;;;;;5078991;28;19964;-76
2022/03/29 09:25:12;;;;;;;;;;;13.20;72.80;;;;;;5078907;28;19915;-76
2022/03/29 09:27:50;;;;;;;;;;;13.30;73.50;;;;;;5078442;28;19931;-76
2022/03/29 09:30:16;;;;;;;;;;;13.40;73.90;;;;;;5078356;28;19915;-77
2022/03/29 09:32:54;;;;;;;;;;;13.50;74.60;;;;;;5078833;28;20272;-76
2022/03/29 09:35:20;;;;;;;;;;;13.60;73.00;;;;;;5077739;28;19916;-76
2022/03/29 09:37:45;;;;;;;;;;;13.70;74.90;;;;;;5078786;28;20449;-76
2022/03/29 09:40:12;;;;;;;;;;;13.80;73.60;;;;;;5078105;28;19909;-76
2022/03/29 09:42:39;;;;;;;;;;;13.90;72.90;;;;;;5078570;28;19918;-76
2022/03/29 09:45:05;;;;;;;;;;;13.90;71.90;;;;;;5078219;28;19915;-76
2022/03/29 09:47:31;;;;;;;;;;;14.00;72.50;;;;;;5057143;28;20288;-76
2022/03/29 09:49:56;;;;;;;;;;;14.00;72.20;;;;;;5058446;28;19931;-76
2022/03/29 09:52:28;;;;;;;;;;;14.10;71.20;;;;;;5058188;28;19909;-76
2022/03/29 09:55:06;;;;;;;;;;;14.10;71.50;;;;;;5058207;28;20276;-76
2022/03/29 09:57:39;;;;;;;;;;;14.20;71.80;;;;;;5056949;28;19909;-76
2022/03/29 10:00:09;;;;;;;;;;;14.30;71.80;;;;;;5058048;28;19909;-76
2022/03/29 10:02:36;;;;;;;;;;;14.30;70.70;;;;;;5057698;28;19909;-76
2022/03/29 10:05:03;;;;;;;;;;;14.50;70.70;;;;;;5058302;28;19916;-77
2022/03/29 10:07:30;;;;;;;;;;;14.70;70.80;;;;;;5058014;28;19909;-77
2022/03/29 10:09:55;;;;;;;;;;;15.00;71.40;;;;;;5057993;28;19913;-77
2022/03/29 10:12:23;;;;;;;;;;;15.50;71.10;;;;;;5057901;28;19954;-77
2022/03/29 10:14:50;;;;;;;;;;;15.90;69.80;;;;;;5057769;28;20061;-76
2022/03/29 10:17:16;;;;;;;;;;;16.00;68.30;;;;;;5057858;28;19935;-77
2022/03/29 10:19:44;;;;;;;;;;;16.10;68.30;;;;;;5058054;28;20272;-77
2022/03/29 10:22:12;;;;;;;;;;;16.10;67.70;;;;;;5057840;28;19909;-77
2022/03/29 10:24:38;;;;;;;;;;;16.10;67.50;;;;;;5057829;28;19915;-77
2022/03/29 10:27:04;;;;;;;;;;;16.30;67.60;;;;;;5056049;28;19909;-77
2022/03/29 10:29:30;;;;;;;;;;;16.40;66.70;;;;;;5057917;28;19909;-77
2022/03/29 10:31:55;;;;;;;;;;;16.50;67.20;;;;;;5056294;28;19909;-77
2022/03/29 10:34:24;;;;;;;;;;;16.80;67.50;;;;;;5057796;28;19909;-77
2022/03/29 10:37:08;;;;;;;;;;;17.20;66.60;;;;;;5057593;28;19917;-78
2022/03/29 10:39:41;;;;;;;;;;;17.40;66.30;;;;;;5057552;28;19913;-77
2022/03/29 10:42:41;;;;;;;;;;;18.20;65.00;;;;;;5057751;28;19913;-77
2022/03/29 10:45:12;;;;;;;;;;;19.10;64.00;;;;;;5042713;28;19909;-77
2022/03/29 10:47:39;;;;;;;;;;;19.90;63.60;;;;;;5070151;28;19920;-77
2022/03/29 10:50:06;;;;;;;;;;;20.30;62.90;;;;;;5077861;28;19922;-77
2022/03/29 10:52:42;;;;;;;;;;;20.60;62.70;;;;;;5077724;28;19908;-77
2022/03/29 10:55:18;;;;;;;;;;;21.00;62.40;;;;;;5077719;28;19965;-77
2022/03/29 10:58:03;;;;;;;;;;;21.40;59.00;;;;;;5077692;28;19916;-77
2022/03/29 11:00:31;;;;;;;;;;;21.50;56.70;;;;;;5077356;28;19909;-77
2022/03/29 11:03:10;;;;;;;;;;;21.30;56.50;;;;;;5064629;28;19915;-77
2022/03/29 11:05:54;;;;;;;;;;;21.10;57.00;;;;;;5077437;28;19955;-77
2022/03/29 11:08:20;;;;;;;;;;;21.10;56.50;;;;;;5077555;28;20367;-77
2022/03/29 11:10:46;;;;;;;;;;;21.10;56.80;;;;;;5077306;28;19916;-77
2022/03/29 11:13:41;;;;;;;;;;;21.40;57.60;;;;;;5077580;28;20363;-77
2022/03/29 11:16:25;;;;;;;;;;;22.00;57.00;;;;;;5039341;28;20442;-77
2022/03/29 11:18:51;;;;;;;;;;;22.60;56.20;;;;;;5081280;28;20264;-77
2022/03/29 11:21:37;;;;;;;;;;;22.80;56.70;;;;;;5081570;28;19930;-77
2022/03/29 11:24:04;;;;;;;;;;;23.00;57.50;;;;;;5069018;28;19908;-77
2022/03/29 11:26:30;;;;;;;;;;;23.60;56.40;;;;;;5080871;28;20332;-77
2022/03/29 11:28:58;;;;;;;;;;;24.00;54.80;;;;;;5062796;28;20007;-77
2022/03/29 11:31:31;;;;;;;;;;;24.60;53.10;;;;;;5080859;28;19908;-76
2022/03/29 11:33:56;;;;;;;;;;;25.00;52.50;;;;;;5080818;28;20275;-76
2022/03/29 11:36:22;;;;;;;;;;;25.20;54.10;;;;;;5080821;28;19912;-76
2022/03/29 11:38:49;;;;;;;;;;;25.40;53.30;;;;;;5081168;28;19909;-77
2022/03/29 11:41:29;;;;;;;;;;;25.50;54.90;;;;;;5080396;28;19962;-77
2022/03/29 11:43:57;;;;;;;;;;;25.70;55.60;;;;;;5080779;28;19948;-76
2022/03/29 11:46:22;;;;;;;;;;;26.00;54.40;;;;;;5080427;28;20011;-77
2022/03/29 11:48:49;;;;;;;;;;;26.20;52.00;;;;;;5080825;28;20026;-77
2022/03/29 11:51:16;;;;;;;;;;;25.90;51.20;;;;;;5080521;28;19908;-77
2022/03/29 11:53:41;;;;;;;;;;;25.80;51.40;;;;;;5080606;28;19909;-77
2022/03/29 11:56:08;;;;;;;;;;;25.80;49.70;;;;;;5080380;28;19999;-76
2022/03/29 11:58:39;;;;;;;;;;;25.70;48.90;;;;;;5080590;28;19993;-76
2022/03/29 12:01:09;;;;;;;;;;;25.60;49.00;;;;;;5080206;28;19919;-77
2022/03/29 12:03:41;;;;;;;;;;;25.40;48.70;;;;;;5080718;28;19958;-77
2022/03/29 12:06:14;;;;;;;;;;;25.10;50.90;;;;;;5067328;28;19995;-77
2022/03/29 12:08:47;;;;;;;;;;;24.80;50.10;;;;;;5080292;28;20333;-76
2022/03/29 12:11:17;;;;;;;;;;;24.40;49.70;;;;;;5080296;28;19909;-76
2022/03/29 12:13:44;;;;;;;;;;;24.00;49.20;;;;;;5080283;28;19963;-76
2022/03/29 12:16:23;;;;;;;;;;;23.80;50.40;;;;;;5080114;28;19943;-76
2022/03/29 12:18:49;;;;;;;;;;;23.40;51.00;;;;;;5080100;28;20367;-76
2022/03/29 12:21:15;;;;;;;;;;;23.10;50.40;;;;;;5080294;28;20011;-76
2022/03/29 12:23:42;;;;;;;;;;;22.80;50.80;;;;;;5080024;28;19909;-76
2022/03/29 12:26:11;;;;;;;;;;;22.90;52.00;;;;;;5079774;28;19915;-76
2022/03/29 12:28:38;;;;;;;;;;;23.10;52.60;;;;;;5079367;28;20413;-76
2022/03/29 12:31:08;;;;;;;;;;;23.20;52.90;;;;;;5079909;28;19975;-76
2022/03/29 12:33:34;;;;;;;;;;;23.40;53.40;;;;;;5079662;28;19908;-76
2022/03/29 12:36:13;;;;;;;;;;;23.60;52.70;;;;;;5079910;28;19938;-76
2022/03/29 12:38:41;;;;;;;;;;;23.70;51.60;;;;;;5066763;28;19909;-76
2022/03/29 12:41:07;;;;;;;;;;;23.80;51.30;;;;;;5078738;28;20007;-76
2022/03/29 12:43:35;;;;;;;;;;;23.90;52.50;;;;;;5079805;28;19947;-76
2022/03/29 12:46:02;;;;;;;;;;;24.10;52.60;;;;;;5079630;28;20369;-76
2022/03/29 12:48:28;;;;;;;;;;;24.30;52.80;;;;;;5079437;28;19931;-76
2022/03/29 12:50:54;;;;;;;;;;;24.40;52.30;;;;;;5079656;28;19913;-76
2022/03/29 12:53:19;;;;;;;;;;;24.70;52.70;;;;;;5079593;28;19908;-76
2022/03/29 12:55:55;;;;;;;;;;;24.90;51.20;;;;;;5079304;28;19913;-76
2022/03/29 12:58:31;;;;;;;;;;;24.90;50.50;;;;;;5079512;28;19915;-76
2022/03/29 13:00:57;;;;;;;;;;;24.80;49.40;;;;;;5079084;28;19940;-76
2022/03/29 13:03:23;;;;;;;;;;;24.60;48.90;;;;;;5079444;28;19915;-76
2022/03/29 13:05:49;;;;;;;;;;;24.50;49.50;;;;;;5061209;28;19912;-76
2022/03/29 13:08:22;;;;;;;;;;;24.40;49.80;;;;;;5079277;28;19995;-75
2022/03/29 13:10:50;;;;;;;;;;;24.40;48.30;;;;;;5079127;28;19908;-76
2022/03/29 13:13:25;;;;;;;;;;;24.10;47.80;;;;;;5079248;28;19909;-76
2022/03/29 13:15:54;;;;;;;;;;;24.00;48.90;;;;;;5048914;28;19913;-76
2022/03/29 13:18:20;;;;;;;;;;;23.80;49.50;;;;;;5079080;28;19915;-76
2022/03/29 13:20:46;;;;;;;;;;;23.80;49.60;;;;;;5079094;28;19908;-76
2022/03/29 13:23:12;;;;;;;;;;;23.70;50.00;;;;;;5078924;28;19908;-76
2022/03/29 13:25:38;;;;;;;;;;;23.60;49.60;;;;;;5078820;28;19916;-76
2022/03/29 13:28:04;;;;;;;;;;;23.40;49.20;;;;;;5078553;28;19912;-76
2022/03/29 13:30:30;;;;;;;;;;;23.30;49.50;;;;;;5078402;28;19912;-76
2022/03/29 13:32:56;;;;;;;;;;;23.10;49.90;;;;;;5078690;28;20343;-76
2022/03/29 13:35:22;;;;;;;;;;;23.00;49.40;;;;;;5060603;28;20371;-76
2022/03/29 13:37:48;;;;;;;;;;;22.90;49.60;;;;;;5078250;28;19908;-76
2022/03/29 13:40:14;;;;;;;;;;;22.60;50.40;;;;;;5078250;28;20018;-76
2022/03/29 13:42:40;;;;;;;;;;;22.50;52.50;;;;;;5078702;28;19909;-76
2022/03/29 13:45:06;;;;;;;;;;;22.40;52.40;;;;;;5060271;28;20422;-76
2022/03/29 13:47:35;;;;;;;;;;;22.40;52.10;;;;;;5078428;28;20311;-76
2022/03/29 13:50:00;;;;;;;;;;;22.40;52.40;;;;;;5065271;28;20007;-76
2022/03/29 13:52:26;;;;;;;;;;;22.40;52.60;;;;;;5078313;28;19913;-76
2022/03/29 13:54:52;;;;;;;;;;;22.40;52.10;;;;;;5078247;28;19988;-76
2022/03/29 13:57:17;;;;;;;;;;;22.30;51.80;;;;;;5078487;28;19915;-76
2022/03/29 13:59:43;;;;;;;;;;;22.30;52.30;;;;;;5065037;28;19909;-76
2022/03/29 14:02:09;;;;;;;;;;;22.30;52.40;;;;;;5078245;28;19908;-76
2022/03/29 14:04:34;;;;;;;;;;;22.30;52.40;;;;;;5078441;28;19909;-76
2022/03/29 14:07:00;;;;;;;;;;;22.20;52.10;;;;;;5078298;28;19909;-76
2022/03/29 14:09:26;;;;;;;;;;;22.00;51.80;;;;;;5078171;28;19915;-76
2022/03/29 14:11:52;;;;;;;;;;;21.90;52.30;;;;;;5078179;28;19999;-76
2022/03/29 14:14:18;;;;;;;;;;;21.90;52.40;;;;;;5077850;28;19908;-76
2022/03/29 14:16:43;;;;;;;;;;;21.80;52.90;;;;;;5059843;28;19916;-76
2022/03/29 14:19:09;;;;;;;;;;;21.70;52.90;;;;;;5078241;28;19908;-76
2022/03/29 14:21:35;;;;;;;;;;;21.70;52.70;;;;;;5077920;28;19919;-76
2022/03/29 14:24:01;;;;;;;;;;;21.70;52.70;;;;;;5077972;28;20371;-75
2022/03/29 14:26:27;;;;;;;;;;;21.60;52.80;;;;;;5077688;28;19931;-76
2022/03/29 14:28:52;;;;;;;;;;;21.50;53.00;;;;;;5077287;28;19948;-76